createdAt,value
2018-12-10T00:00:00.222Z,43.70
2018-12-10T00:02:29.863Z,43.30
2018-12-10T00:05:02.892Z,42.60
2018-12-10T00:07:35.096Z,42.80
2018-12-10T00:10:05.008Z,42.70
2018-12-10T00:12:35.010Z,43.60
2018-12-10T00:15:06.203Z,43.40
2018-12-10T00:17:37.536Z,43.60
2018-12-10T00:20:07.097Z,42.90
2018-12-10T00:22:38.107Z,42.60
2018-12-10T00:25:08.922Z,43.00
2018-12-10T00:27:39.742Z,43.30
2018-12-10T00:30:09.981Z,44.10
2018-12-10T00:32:39.889Z,43.70
2018-12-10T00:35:09.835Z,44.20
2018-12-10T00:37:39.729Z,44.20
2018-12-10T00:40:10.777Z,44.50
2018-12-10T00:42:41.099Z,42.60
2018-12-10T00:45:12.872Z,44.80
2018-12-10T00:47:42.941Z,44.20
2018-12-10T00:50:13.987Z,44.40
2018-12-10T00:52:43.299Z,44.80
2018-12-10T00:55:13.835Z,45.00
2018-12-10T00:57:44.592Z,45.50
2018-12-10T01:00:15.900Z,45.20
2018-12-10T01:02:45.981Z,45.20
2018-12-10T01:05:16.175Z,46.80
2018-12-10T01:07:46.407Z,45.90
2018-12-10T01:10:16.209Z,46.50
2018-12-10T01:12:46.027Z,45.10
2018-12-10T01:15:15.604Z,44.60
2018-12-10T01:17:45.848Z,43.30
2018-12-10T01:20:16.070Z,38.90
2018-12-10T01:22:46.372Z,37.30
2018-12-10T01:25:16.512Z,37.50
2018-12-10T01:27:46.538Z,36.70
2018-12-10T01:30:16.758Z,39.50
2018-12-10T01:32:46.360Z,40.40
2018-12-10T01:35:17.241Z,40.60
2018-12-10T01:37:46.823Z,41.50
2018-12-10T01:40:16.438Z,42.60
2018-12-10T01:42:47.266Z,42.30
2018-12-10T01:45:17.180Z,43.10
2018-12-10T01:47:48.510Z,44.20
2018-12-10T01:50:18.709Z,45.40
2018-12-10T01:52:49.376Z,45.20
2018-12-10T01:55:19.634Z,45.00
2018-12-10T01:57:49.882Z,45.40
2018-12-10T02:00:20.427Z,45.50
2018-12-10T02:02:50.537Z,45.50
2018-12-10T02:05:21.207Z,46.50
2018-12-10T02:07:51.859Z,46.40
2018-12-10T02:10:22.590Z,45.90
2018-12-10T02:12:53.284Z,46.10
2018-12-10T02:15:22.892Z,45.90
2018-12-10T02:17:54.191Z,44.60
2018-12-10T02:20:24.358Z,43.50
2018-12-10T02:22:53.853Z,42.30
2018-12-10T02:25:24.092Z,42.70
2018-12-10T02:27:54.118Z,41.50
2018-12-10T02:30:23.879Z,41.80
2018-12-10T02:32:54.114Z,42.00
2018-12-10T02:35:25.561Z,42.00
2018-12-10T02:37:55.214Z,44.30
2018-12-10T02:40:24.715Z,43.30
2018-12-10T02:42:54.777Z,43.20
2018-12-10T02:45:25.237Z,43.00
2018-12-10T02:47:55.809Z,44.00
2018-12-10T02:50:25.308Z,43.70
2018-12-10T02:52:54.955Z,43.70
2018-12-10T02:55:25.349Z,44.00
2018-12-10T02:57:54.630Z,44.50
2018-12-10T03:00:23.983Z,43.70
2018-12-10T03:02:54.737Z,43.60
2018-12-10T03:05:24.834Z,44.30
2018-12-10T03:07:55.784Z,44.10
2018-12-10T03:10:25.237Z,45.10
2018-12-10T03:12:56.538Z,44.80
2018-12-10T03:15:27.079Z,44.70
2018-12-10T03:17:56.543Z,44.70
2018-12-10T03:20:27.142Z,44.60
2018-12-10T03:22:57.086Z,45.20
2018-12-10T03:25:27.681Z,44.70
2018-12-10T03:27:57.930Z,45.50
2018-12-10T03:30:28.497Z,43.40
2018-12-10T03:32:58.130Z,44.50
2018-12-10T03:35:28.491Z,44.80
2018-12-10T03:37:59.156Z,45.30
2018-12-10T03:40:29.363Z,45.00
2018-12-10T03:42:59.087Z,45.30
2018-12-10T03:45:29.222Z,45.40
2018-12-10T03:47:59.123Z,44.70
2018-12-10T03:50:29.463Z,44.80
2018-12-10T03:52:59.969Z,44.80
2018-12-10T03:55:29.574Z,43.80
2018-12-10T03:58:00.118Z,43.40
2018-12-10T04:00:30.605Z,44.50
2018-12-10T04:03:01.157Z,45.20
2018-12-10T04:05:31.292Z,45.80
2018-12-10T04:08:00.902Z,45.30
2018-12-10T04:10:31.034Z,45.50
2018-12-10T04:13:00.635Z,46.40
2018-12-10T04:15:31.186Z,46.00
2018-12-10T04:18:01.089Z,46.70
2018-12-10T04:20:31.833Z,47.20
2018-12-10T04:23:03.440Z,45.30
2018-12-10T04:25:35.838Z,47.30
2018-12-10T04:28:05.782Z,46.90
2018-12-10T04:30:37.099Z,47.40
2018-12-10T04:33:08.170Z,47.10
2018-12-10T04:35:38.162Z,46.60
2018-12-10T04:38:09.532Z,46.60
2018-12-10T04:40:39.929Z,46.50
2018-12-10T04:43:11.203Z,46.80
2018-12-10T04:45:40.807Z,46.10
2018-12-10T04:48:11.027Z,44.70
2018-12-10T04:50:40.641Z,45.00
2018-12-10T04:53:10.544Z,44.80
2018-12-10T04:55:40.974Z,45.50
2018-12-10T04:58:10.335Z,45.10
2018-12-10T05:00:40.484Z,45.30
2018-12-10T05:03:10.627Z,44.80
2018-12-10T05:05:40.529Z,45.60
2018-12-10T05:08:11.593Z,44.00
2018-12-10T05:10:41.897Z,44.60
2018-12-10T05:13:12.845Z,44.70
2018-12-10T05:15:43.528Z,45.10
2018-12-10T05:18:15.878Z,45.00
2018-12-10T05:20:46.481Z,45.30
2018-12-10T05:23:16.088Z,45.40
2018-12-10T05:25:47.440Z,45.20
2018-12-10T05:28:17.240Z,45.20
2018-12-10T05:30:47.863Z,46.10
2018-12-10T05:33:18.872Z,46.00
2018-12-10T05:35:49.678Z,46.00
2018-12-10T05:38:20.174Z,45.20
2018-12-10T05:40:51.280Z,44.70
2018-12-10T05:43:21.760Z,45.10
2018-12-10T05:45:51.937Z,44.30
2018-12-10T05:48:26.339Z,44.50
2018-12-10T05:50:57.540Z,44.30
2018-12-10T05:53:27.172Z,44.80
2018-12-10T05:55:58.485Z,43.80
2018-12-10T05:58:28.154Z,44.50
2018-12-10T06:00:59.388Z,44.10
2018-12-10T06:03:30.566Z,44.60
2018-12-10T06:06:02.282Z,44.20
2018-12-10T06:08:34.055Z,44.10
2018-12-10T06:11:05.352Z,44.60
2018-12-10T06:13:36.026Z,44.40
2018-12-10T06:16:06.142Z,44.40
2018-12-10T06:18:38.467Z,43.40
2018-12-10T06:21:08.622Z,43.60
2018-12-10T06:23:39.118Z,44.40
2018-12-10T06:26:10.393Z,44.50
2018-12-10T06:28:40.315Z,45.30
2018-12-10T06:31:10.947Z,44.30
2018-12-10T06:33:41.179Z,43.30
2018-12-10T06:36:11.471Z,43.40
2018-12-10T06:38:42.026Z,44.50
2018-12-10T06:41:13.236Z,44.80
2018-12-10T06:43:43.583Z,44.90
2018-12-10T06:46:14.409Z,44.80
2018-12-10T06:48:45.909Z,45.00
2018-12-10T06:51:17.989Z,44.80
2018-12-10T06:53:48.721Z,43.90
2018-12-10T06:56:19.558Z,44.90
2018-12-10T06:58:49.245Z,44.70
2018-12-10T07:01:19.669Z,44.30
2018-12-10T07:03:55.423Z,44.90
2018-12-10T07:06:25.698Z,44.70
2018-12-10T07:08:56.990Z,44.00
2018-12-10T07:11:27.426Z,44.30
2018-12-10T07:13:59.512Z,45.20
2018-12-10T07:16:30.601Z,44.20
2018-12-10T07:19:01.674Z,44.20
2018-12-10T07:21:32.147Z,43.60
2018-12-10T07:24:03.073Z,43.30
2018-12-10T07:26:35.974Z,43.00
2018-12-10T07:29:05.737Z,42.90
2018-12-10T07:31:35.133Z,43.60
2018-12-10T07:34:06.711Z,43.50
2018-12-10T07:36:38.620Z,43.70
2018-12-10T07:39:11.916Z,42.60
2018-12-10T07:41:41.874Z,42.10
2018-12-10T07:44:12.201Z,42.10
2018-12-10T07:46:43.130Z,41.80
2018-12-10T07:49:13.875Z,42.10
2018-12-10T07:51:43.861Z,42.10
2018-12-10T07:54:14.570Z,41.50
2018-12-10T07:56:46.034Z,42.00
2018-12-10T07:59:19.222Z,41.60
2018-12-10T08:01:49.763Z,41.40
2018-12-10T08:04:20.312Z,41.20
2018-12-10T08:06:50.341Z,41.70
2018-12-10T08:09:24.085Z,41.50
2018-12-10T08:11:53.966Z,42.00
2018-12-10T08:14:23.612Z,40.90
2018-12-10T08:16:53.604Z,40.70
2018-12-10T08:19:23.504Z,41.50
2018-12-10T08:21:54.033Z,40.70
2018-12-10T08:24:23.328Z,40.50
2018-12-10T08:26:54.735Z,40.20
2018-12-10T08:29:26.240Z,41.00
2018-12-10T08:31:56.841Z,41.30
2018-12-10T08:34:28.196Z,41.10
2018-12-10T08:36:57.506Z,41.10
2018-12-10T08:39:26.934Z,41.20
2018-12-10T08:41:58.656Z,40.00
2018-12-10T08:44:28.501Z,39.60
2018-12-10T08:47:03.289Z,40.30
2018-12-10T08:49:33.253Z,40.00
2018-12-10T08:52:02.839Z,39.80
2018-12-10T08:54:33.210Z,39.70
2018-12-10T08:57:04.118Z,38.90
2018-12-10T08:59:34.259Z,38.40
2018-12-10T09:02:05.289Z,38.70
2018-12-10T09:04:36.912Z,39.00
2018-12-10T09:07:07.196Z,37.90
2018-12-10T09:09:38.578Z,38.30
2018-12-10T09:12:08.312Z,37.90
2018-12-10T09:14:39.666Z,38.00
2018-12-10T09:17:10.676Z,37.70
2018-12-10T09:19:42.081Z,37.00
2018-12-10T09:22:12.996Z,36.60
2018-12-10T09:24:43.239Z,35.80
2018-12-10T09:27:13.550Z,38.00
2018-12-10T09:29:44.145Z,37.50
2018-12-10T09:32:16.415Z,36.90
2018-12-10T09:34:45.963Z,36.70
2018-12-10T09:37:16.801Z,37.10
2018-12-10T09:39:47.301Z,37.00
2018-12-10T09:42:17.546Z,37.00
2018-12-10T09:44:48.166Z,36.90
2018-12-10T09:47:19.050Z,35.50
2018-12-10T09:49:48.617Z,36.00
2018-12-10T09:52:19.022Z,36.70
2018-12-10T09:54:49.263Z,36.30
2018-12-10T09:57:20.205Z,36.50
2018-12-10T09:59:52.159Z,35.60
2018-12-10T10:02:23.152Z,35.30
2018-12-10T10:04:53.661Z,35.40
2018-12-10T10:07:28.453Z,35.80
2018-12-10T10:09:56.658Z,35.00
2018-12-10T10:12:27.361Z,35.00
2018-12-10T10:14:57.963Z,33.30
2018-12-10T10:17:31.190Z,32.60
2018-12-10T10:20:01.741Z,33.00
2018-12-10T10:22:31.918Z,33.50
2018-12-10T10:25:01.493Z,32.20
2018-12-10T10:27:31.567Z,32.40
2018-12-10T10:30:02.779Z,31.30
2018-12-10T10:32:33.329Z,31.00
2018-12-10T10:35:04.848Z,31.60
2018-12-10T10:37:34.936Z,30.50
2018-12-10T10:40:12.658Z,31.00
2018-12-10T10:42:42.837Z,32.20
2018-12-10T10:45:13.963Z,30.60
2018-12-10T10:47:44.829Z,28.40
2018-12-10T10:50:15.182Z,30.50
2018-12-10T10:52:45.485Z,30.70
2018-12-10T10:55:15.381Z,29.40
2018-12-10T10:57:45.975Z,29.10
2018-12-10T11:00:20.743Z,29.60
2018-12-10T11:02:56.686Z,28.60
2018-12-10T11:05:27.792Z,28.20
2018-12-10T11:07:58.641Z,28.50
2018-12-10T11:10:30.339Z,28.00
2018-12-10T11:13:01.344Z,28.10
2018-12-10T11:15:31.665Z,28.10
2018-12-10T11:18:03.058Z,28.80
2018-12-10T11:20:34.951Z,27.90
2018-12-10T11:23:07.049Z,28.40
2018-12-10T11:25:37.307Z,28.50
2018-12-10T11:28:07.587Z,28.50
2018-12-10T11:30:37.499Z,28.90
2018-12-10T11:33:08.961Z,29.30
2018-12-10T11:35:38.637Z,28.50
2018-12-10T11:38:09.321Z,29.50
2018-12-10T11:40:39.464Z,27.70
2018-12-10T11:43:10.016Z,28.00
2018-12-10T11:45:39.849Z,29.30
2018-12-10T11:48:11.092Z,29.00
2018-12-10T11:50:41.105Z,29.30
2018-12-10T11:53:12.445Z,30.20
2018-12-10T11:55:42.855Z,29.20
2018-12-10T11:58:12.409Z,29.70
2018-12-10T12:00:43.236Z,30.00
2018-12-10T12:03:13.366Z,29.80
2018-12-10T12:05:43.764Z,29.70
2018-12-10T12:08:15.001Z,29.60
2018-12-10T12:10:45.217Z,30.00
2018-12-10T12:13:14.823Z,28.90
2018-12-10T12:15:44.866Z,28.30
2018-12-10T12:18:16.583Z,28.60
2018-12-10T12:20:47.157Z,28.80
2018-12-10T12:23:17.794Z,29.10
2018-12-10T12:25:47.857Z,28.90
2018-12-10T12:28:18.438Z,29.30
2018-12-10T12:30:49.257Z,28.30
2018-12-10T12:33:19.708Z,29.20
2018-12-10T12:35:50.164Z,29.40
2018-12-10T12:38:20.760Z,29.80
2018-12-10T12:40:52.519Z,29.20
2018-12-10T12:43:22.341Z,28.70
2018-12-10T12:45:53.155Z,29.30
2018-12-10T12:48:24.056Z,29.10
2018-12-10T12:50:54.614Z,28.30
2018-12-10T12:53:30.037Z,29.20
2018-12-10T12:56:01.159Z,28.80
2018-12-10T12:58:32.322Z,28.60
2018-12-10T13:01:02.954Z,29.10
2018-12-10T13:03:33.294Z,28.90
2018-12-10T13:06:07.006Z,29.60
2018-12-10T13:08:36.987Z,30.50
2018-12-10T13:11:07.618Z,31.00
2018-12-10T13:13:38.627Z,30.40
2018-12-10T13:16:09.873Z,31.20
2018-12-10T13:18:41.201Z,31.00
2018-12-10T13:21:11.934Z,32.00
2018-12-10T13:23:45.989Z,31.60
2018-12-10T13:26:16.100Z,31.60
2018-12-10T13:28:46.010Z,31.50
2018-12-10T13:31:16.828Z,31.70
2018-12-10T13:33:46.763Z,31.80
2018-12-10T13:36:17.457Z,30.90
2018-12-10T13:38:49.328Z,31.10
2018-12-10T13:41:19.372Z,31.80
2018-12-10T13:43:53.006Z,31.90
2018-12-10T13:46:25.168Z,32.40
2018-12-10T13:48:56.934Z,32.10
2018-12-10T13:51:28.032Z,31.60
2018-12-10T13:53:59.009Z,32.70
2018-12-10T13:56:30.565Z,33.10
2018-12-10T13:59:01.785Z,32.60
2018-12-10T14:01:32.929Z,32.10
2018-12-10T14:04:09.088Z,31.80
2018-12-10T14:06:38.501Z,31.50
2018-12-10T14:09:10.331Z,32.50
2018-12-10T14:11:39.997Z,32.00
2018-12-10T14:14:10.444Z,32.40
2018-12-10T14:16:41.271Z,32.40
2018-12-10T14:19:14.613Z,32.50
2018-12-10T14:21:45.372Z,32.80
2018-12-10T14:24:16.881Z,33.00
2018-12-10T14:26:47.376Z,32.30
2018-12-10T14:29:18.568Z,32.90
2018-12-10T14:31:49.674Z,31.80
2018-12-10T14:34:24.806Z,32.60
2018-12-10T14:36:55.871Z,32.60
2018-12-10T14:39:26.257Z,32.70
2018-12-10T14:41:55.657Z,32.90
2018-12-10T14:44:27.035Z,31.80
2018-12-10T14:46:57.121Z,31.80
2018-12-10T14:49:29.149Z,32.10
2018-12-10T14:51:58.994Z,31.70
2018-12-10T14:54:29.467Z,32.80
2018-12-10T14:56:59.049Z,31.40
2018-12-10T14:59:29.766Z,32.10
2018-12-10T15:02:01.267Z,31.90
2018-12-10T15:04:31.756Z,31.90
2018-12-10T15:07:01.986Z,32.00
2018-12-10T15:09:34.473Z,31.70
2018-12-10T15:12:05.713Z,33.00
2018-12-10T15:14:36.838Z,33.10
2018-12-10T15:17:06.588Z,33.20
2018-12-10T15:19:37.772Z,33.10
2018-12-10T15:22:10.245Z,34.00
2018-12-10T15:24:40.272Z,34.30
2018-12-10T15:27:13.411Z,34.30
2018-12-10T15:29:44.115Z,34.20
2018-12-10T15:32:14.762Z,34.60
2018-12-10T15:34:45.919Z,34.90
2018-12-10T15:37:17.023Z,34.80
2018-12-10T15:39:47.450Z,35.00
2018-12-10T15:42:18.391Z,34.40
2018-12-10T15:44:47.935Z,34.80
2018-12-10T15:47:18.664Z,34.30
2018-12-10T15:49:49.195Z,34.50
2018-12-10T15:52:19.006Z,34.80
2018-12-10T15:54:49.553Z,34.30
2018-12-10T15:57:20.687Z,34.70
2018-12-10T15:59:50.240Z,34.80
2018-12-10T16:02:20.255Z,34.20
2018-12-10T16:04:52.107Z,34.60
2018-12-10T16:07:21.777Z,34.20
2018-12-10T16:09:54.141Z,34.40
2018-12-10T16:12:25.007Z,34.10
2018-12-10T16:14:56.713Z,33.60
2018-12-10T16:17:27.659Z,33.90
2018-12-10T16:19:58.045Z,33.50
2018-12-10T16:22:27.426Z,33.30
2018-12-10T16:24:59.226Z,33.80
2018-12-10T16:27:29.633Z,33.90
2018-12-10T16:30:02.066Z,33.40
2018-12-10T16:32:31.550Z,32.70
2018-12-10T16:35:03.323Z,33.40
2018-12-10T16:37:34.046Z,33.30
2018-12-10T16:40:05.585Z,33.30
2018-12-10T16:42:36.688Z,33.70
2018-12-10T16:45:07.429Z,33.30
2018-12-10T16:47:37.871Z,33.70
2018-12-10T16:50:09.270Z,33.30
2018-12-10T16:52:39.962Z,33.10
2018-12-10T16:55:10.433Z,32.10
2018-12-10T16:57:40.941Z,32.30
2018-12-10T17:00:13.262Z,32.00
2018-12-10T17:02:44.960Z,31.50
2018-12-10T17:05:16.739Z,31.50
2018-12-10T17:07:47.934Z,31.40
2018-12-10T17:10:17.915Z,31.50
2018-12-10T17:12:49.608Z,31.20
2018-12-10T17:15:19.145Z,30.90
2018-12-10T17:17:49.787Z,30.70
2018-12-10T17:20:22.246Z,30.00
2018-12-10T17:22:51.600Z,30.10
2018-12-10T17:25:20.987Z,30.40
2018-12-10T17:27:51.474Z,29.90
2018-12-10T17:30:23.361Z,30.20
2018-12-10T17:32:54.973Z,30.30
2018-12-10T17:35:25.389Z,29.30
2018-12-10T17:37:55.477Z,29.10
2018-12-10T17:40:25.825Z,29.70
2018-12-10T17:42:58.463Z,29.30
2018-12-10T17:45:29.099Z,30.00
2018-12-10T17:48:00.396Z,29.40
2018-12-10T17:50:32.161Z,29.60
2018-12-10T17:53:05.328Z,29.50
2018-12-10T17:55:37.222Z,29.30
2018-12-10T17:58:08.050Z,29.40
2018-12-10T18:00:38.900Z,29.90
2018-12-10T18:03:10.039Z,29.40
2018-12-10T18:05:40.915Z,29.80
2018-12-10T18:08:11.366Z,29.60
2018-12-10T18:10:42.911Z,29.90
2018-12-10T18:13:13.169Z,29.50
2018-12-10T18:15:43.534Z,30.70
2018-12-10T18:18:13.925Z,30.50
2018-12-10T18:20:43.923Z,31.80
2018-12-10T18:23:14.421Z,30.90
2018-12-10T18:25:44.456Z,31.20
2018-12-10T18:28:14.638Z,31.70
2018-12-10T18:30:46.437Z,30.60
2018-12-10T18:33:17.475Z,30.40
2018-12-10T18:35:47.482Z,31.20
2018-12-10T18:38:19.438Z,30.90
2018-12-10T18:40:54.554Z,30.30
2018-12-10T18:43:26.620Z,31.10
2018-12-10T18:45:58.114Z,31.30
2018-12-10T18:48:29.275Z,30.70
2018-12-10T18:51:01.384Z,30.30
2018-12-10T18:53:32.714Z,30.30
2018-12-10T18:56:04.566Z,30.40
2018-12-10T18:58:35.005Z,30.50
2018-12-10T19:01:04.809Z,30.90
2018-12-10T19:03:36.832Z,30.00
2018-12-10T19:06:08.318Z,31.00
2018-12-10T19:08:39.177Z,31.40
2018-12-10T19:11:09.344Z,31.20
2018-12-10T19:13:39.923Z,31.50
2018-12-10T19:16:10.731Z,31.40
2018-12-10T19:18:40.458Z,32.00
2018-12-10T19:21:11.358Z,31.60
2018-12-10T19:23:40.882Z,32.20
2018-12-10T19:26:10.525Z,33.00
2018-12-10T19:28:40.340Z,33.10
2018-12-10T19:31:10.947Z,34.10
2018-12-10T19:33:41.372Z,34.40
2018-12-10T19:36:11.884Z,34.40
2018-12-10T19:38:43.295Z,34.90
2018-12-10T19:41:14.476Z,35.50
2018-12-10T19:43:45.053Z,36.00
2018-12-10T19:46:16.703Z,35.70
2018-12-10T19:48:47.894Z,36.10
2018-12-10T19:51:17.757Z,35.50
2018-12-10T19:53:49.268Z,35.80
2018-12-10T19:56:19.015Z,35.60
2018-12-10T19:58:49.979Z,35.00
2018-12-10T20:01:20.151Z,34.50
2018-12-10T20:03:50.769Z,35.20
2018-12-10T20:06:26.344Z,35.90
2018-12-10T20:08:56.344Z,36.50
2018-12-10T20:11:26.289Z,38.30
2018-12-10T20:13:58.078Z,40.30
2018-12-10T20:16:29.495Z,41.10
2018-12-10T20:19:01.451Z,42.50
2018-12-10T20:21:32.698Z,42.80
2018-12-10T20:24:04.053Z,43.00
2018-12-10T20:26:34.190Z,42.40
2018-12-10T20:29:04.966Z,42.80
2018-12-10T20:31:34.600Z,42.50
2018-12-10T20:34:05.805Z,42.80
2018-12-10T20:36:35.390Z,42.40
2018-12-10T20:39:06.795Z,42.60
2018-12-10T20:41:38.270Z,43.10
2018-12-10T20:44:08.706Z,43.50
2018-12-10T20:46:38.720Z,43.20
2018-12-10T20:49:10.366Z,42.90
2018-12-10T20:51:40.265Z,43.10
2018-12-10T20:54:09.605Z,44.10
2018-12-10T20:56:40.436Z,42.70
2018-12-10T20:59:12.112Z,42.30
2018-12-10T21:01:43.007Z,43.00
2018-12-10T21:04:17.049Z,43.60
2018-12-10T21:06:46.456Z,43.80
2018-12-10T21:09:16.437Z,43.50
2018-12-10T21:11:47.819Z,43.30
2018-12-10T21:14:18.938Z,42.80
2018-12-10T21:16:50.309Z,41.70
2018-12-10T21:19:21.169Z,43.00
2018-12-10T21:21:51.860Z,42.20
2018-12-10T21:24:25.624Z,42.40
2018-12-10T21:26:55.978Z,41.10
2018-12-10T21:29:26.828Z,41.40
2018-12-10T21:31:57.993Z,41.90
2018-12-10T21:34:27.782Z,41.70
2018-12-10T21:36:58.008Z,41.60
2018-12-10T21:39:28.775Z,41.20
2018-12-10T21:41:59.200Z,41.40
2018-12-10T21:44:30.632Z,41.60
2018-12-10T21:47:02.405Z,41.30
2018-12-10T21:49:31.884Z,41.30
2018-12-10T21:52:01.753Z,41.90
2018-12-10T21:54:32.988Z,42.40
2018-12-10T21:57:03.504Z,40.20
2018-12-10T21:59:34.377Z,41.10
2018-12-10T22:02:04.642Z,40.90
2018-12-10T22:04:35.311Z,40.70
2018-12-10T22:07:05.439Z,40.90
2018-12-10T22:09:34.943Z,40.10
2018-12-10T22:12:06.022Z,40.90
2018-12-10T22:14:35.996Z,39.80
2018-12-10T22:17:06.329Z,40.60
2018-12-10T22:19:37.041Z,40.90
2018-12-10T22:22:09.205Z,40.40
2018-12-10T22:24:40.053Z,39.20
2018-12-10T22:27:12.383Z,39.90
2018-12-10T22:29:44.517Z,40.50
2018-12-10T22:32:14.710Z,40.30
2018-12-10T22:34:44.474Z,41.00
2018-12-10T22:37:15.030Z,40.70
2018-12-10T22:39:47.819Z,40.40
2018-12-10T22:42:17.944Z,40.50
2018-12-10T22:44:51.100Z,39.60
2018-12-10T22:47:20.528Z,40.20
2018-12-10T22:49:51.085Z,40.20
2018-12-10T22:52:21.202Z,40.10
2018-12-10T22:54:52.281Z,41.00
2018-12-10T22:57:21.873Z,41.40
2018-12-10T22:59:51.849Z,41.80
2018-12-10T23:02:23.120Z,42.10
2018-12-10T23:04:54.896Z,42.10
2018-12-10T23:07:26.528Z,41.90
2018-12-10T23:09:56.983Z,41.70
2018-12-10T23:12:26.672Z,42.30
2018-12-10T23:14:57.214Z,41.70
2018-12-10T23:17:28.115Z,42.40
2018-12-10T23:19:57.850Z,42.50
2018-12-10T23:22:28.269Z,42.50
2018-12-10T23:24:59.533Z,42.50
2018-12-10T23:27:32.034Z,42.50
2018-12-10T23:30:02.207Z,42.70
2018-12-10T23:32:33.285Z,42.50
2018-12-10T23:35:03.980Z,42.60
2018-12-10T23:37:34.818Z,42.50
2018-12-10T23:40:04.909Z,42.20
2018-12-10T23:42:35.888Z,42.30
2018-12-10T23:45:06.519Z,41.90
2018-12-10T23:47:36.776Z,41.90
2018-12-10T23:50:06.560Z,41.90
2018-12-10T23:52:36.050Z,41.20
2018-12-10T23:55:06.185Z,40.60
2018-12-10T23:57:36.630Z,41.70
